Time;durP1;ratioP1;P1;durP2;ratioP2;P2;SDS_P1;SDS_P2;PMS_P1;PMS_P2;Temp;Humidity;BMP_temperature;BMP_pressure;BME280_temperature;BME280_humidity;BME280_pressure;Samples;Min_cycle;Max_cycle;Signal;HPM_P1;HPM_P2
2021/06/13 00:01:19;;;;;;;7.82;2.22;;;;;;;13.45;100.00;98253.75;5045729;28;20048;-83
2021/06/13 00:03:47;;;;;;;15.13;2.40;;;;;;;13.42;100.00;98262.53;5063079;28;20037;-81
2021/06/13 00:06:23;;;;;;;9.13;2.00;;;;;;;13.42;100.00;98262.53;5063955;28;20037;-80
2021/06/13 00:08:50;;;;;;;9.55;1.88;;;;;;;13.28;100.00;98267.31;5063071;28;20131;-82
2021/06/13 00:11:21;;;;;;;8.15;1.83;;;;;;;13.13;100.00;98267.75;5046511;28;20049;-80
2021/06/13 00:14:01;;;;;;;12.75;2.08;;;;;;;13.09;100.00;98266.78;5048040;28;20041;-82
2021/06/13 00:16:37;;;;;;;7.82;2.40;;;;;;;13.10;100.00;98269.19;5048678;28;20080;-82
2021/06/13 00:19:04;;;;;;;9.30;2.03;;;;;;;13.19;100.00;98282.78;5058349;28;20053;-82
2021/06/13 00:21:33;;;;;;;13.07;2.30;;;;;;;13.19;100.00;98266.47;5063798;28;20048;-81
2021/06/13 00:24:00;;;;;;;12.15;2.53;;;;;;;13.23;100.00;98272.91;5041527;28;20053;-82
2021/06/13 00:26:29;;;;;;;10.32;2.72;;;;;;;13.31;100.00;98295.78;5058073;28;20059;-82
2021/06/13 00:29:05;;;;;;;13.40;2.60;;;;;;;13.36;100.00;98299.19;5055610;28;20423;-83
2021/06/13 00:31:32;;;;;;;14.35;2.80;;;;;;;13.35;100.00;98310.34;5057251;28;20059;-83
2021/06/13 00:34:04;;;;;;;7.28;2.35;;;;;;;13.26;100.00;98295.94;5056102;28;20090;-81
2021/06/13 00:37:00;;;;;;;8.48;2.17;;;;;;;13.18;100.00;98288.56;5045428;28;20057;-82
2021/06/13 00:39:56;;;;;;;12.07;2.75;;;;;;;13.13;100.00;98283.25;5046695;28;20045;-82
2021/06/13 00:42:25;;;;;;;10.35;2.47;;;;;;;13.15;100.00;98297.34;5061326;28;20037;-82
2021/06/13 00:44:51;;;;;;;7.82;2.40;;;;;;;13.25;100.00;98316.09;5062321;28;20056;-83
2021/06/13 00:47:18;;;;;;;11.90;2.65;;;;;;;13.15;100.00;98314.47;5061286;28;20071;-80
2021/06/13 00:49:51;;;;;;;12.57;2.85;;;;;;;13.16;100.00;98310.63;5060529;28;20408;-82
2021/06/13 00:52:29;;;;;;;15.05;2.60;;;;;;;13.13;100.00;98313.16;5046915;28;20048;-81
2021/06/13 00:55:00;;;;;;;16.42;3.08;;;;;;;13.14;100.00;98307.41;5060398;28;20484;-82
2021/06/13 00:57:57;;;;;;;13.68;2.85;;;;;;;13.11;100.00;98317.00;5054898;28;20076;-81
2021/06/13 01:00:28;;;;;;;18.23;3.03;;;;;;;13.03;100.00;98315.00;5055601;28;20044;-81
2021/06/13 01:03:18;;;;;;;6.47;2.63;;;;;;;12.95;100.00;98320.44;5051086;28;20491;-83
2021/06/13 01:05:44;;;;;;;13.43;2.75;;;;;;;12.68;100.00;98304.31;5061626;28;20049;-83
2021/06/13 01:09:10;;;;;;;14.85;3.25;;;;;;;12.73;100.00;98329.41;5058382;28;20106;-82
2021/06/13 01:11:47;;;;;;;17.65;3.40;;;;;;;12.66;100.00;98341.84;5062724;28;20079;-82
2021/06/13 01:14:46;;;;;;;10.20;2.92;;;;;;;12.52;100.00;98331.84;5062383;28;20045;-82
2021/06/13 01:17:48;;;;;;;9.38;2.85;;;;;;;12.49;100.00;98335.19;5063792;28;20064;-83
2021/06/13 01:20:31;;;;;;;11.45;3.22;;;;;;;12.47;100.00;98325.75;5047478;28;20048;-82
2021/06/13 01:23:35;;;;;;;10.50;3.35;;;;;;;12.52;100.00;98337.28;5066143;28;20473;-83
2021/06/13 01:26:40;;;;;;;10.40;3.20;;;;;;;12.50;100.00;98339.53;5054796;28;20048;-82
2021/06/13 01:29:15;;;;;;;16.42;3.33;;;;;;;12.48;100.00;98338.22;5053451;28;20041;-81
2021/06/13 01:31:54;;;;;;;11.05;3.38;;;;;;;12.53;100.00;98351.69;5051740;28;20087;-85
2021/06/13 01:34:31;;;;;;;12.23;3.13;;;;;;;12.46;100.00;98345.88;5066942;28;20041;-83
2021/06/13 01:37:08;;;;;;;16.10;3.78;;;;;;;12.42;100.00;98340.25;5051508;28;20052;-84
2021/06/13 01:39:38;;;;;;;12.50;3.42;;;;;;;12.39;100.00;98343.59;5050005;28;20049;-83
2021/06/13 01:42:31;;;;;;;17.15;3.80;;;;;;;12.46;100.00;98352.09;5050338;28;20075;-84
2021/06/13 01:45:32;;;;;;;11.85;3.78;;;;;;;12.42;100.00;98344.88;5069237;28;20062;-83
2021/06/13 01:48:15;;;;;;;12.63;3.50;;;;;;;12.28;100.00;98328.69;5051164;28;20045;-84
2021/06/13 01:50:52;;;;;;;13.05;3.22;;;;;;;12.23;100.00;98336.91;5065718;28;20124;-83
2021/06/13 01:53:22;;;;;;;11.32;3.80;;;;;;;12.16;100.00;98341.16;5046676;28;20048;-83
2021/06/13 01:55:51;;;;;;;14.25;3.72;;;;;;;12.13;100.00;98353.44;5066813;28;20037;-83
2021/06/13 01:58:31;;;;;;;16.15;3.88;;;;;;;11.98;100.00;98347.56;5038532;28;20044;-84
2021/06/13 02:01:05;;;;;;;16.00;3.65;;;;;;;11.85;100.00;98343.78;5040467;28;20117;-81
2021/06/13 02:03:40;;;;;;;9.35;3.10;;;;;;;11.81;100.00;98361.78;5032799;28;20041;-84
2021/06/13 02:06:20;;;;;;;18.98;4.40;;;;;;;11.77;100.00;98353.44;5054466;28;20056;-83
2021/06/13 02:13:02;;;;;;;18.77;4.32;;;;;;;11.47;100.00;98339.72;4985095;28;20033;-83
2021/06/13 02:15:29;;;;;;;16.50;4.10;;;;;;;11.42;100.00;98356.91;5045914;28;20049;-82
2021/06/13 02:17:58;;;;;;;15.05;3.88;;;;;;;11.27;100.00;98344.47;5031700;28;20049;-82
2021/06/13 02:20:32;;;;;;;13.90;3.80;;;;;;;11.26;100.00;98356.41;5021422;28;20093;-83
2021/06/13 02:23:00;;;;;;;15.82;4.10;;;;;;;11.36;100.00;98377.06;5043399;28;20060;-84
2021/06/13 02:25:28;;;;;;;13.93;4.30;;;;;;;11.37;100.00;98377.88;5058696;28;20045;-83
2021/06/13 02:28:00;;;;;;;11.15;3.97;;;;;;;11.19;100.00;98366.03;5041283;28;20037;-83
2021/06/13 02:30:36;;;;;;;16.73;4.18;;;;;;;11.22;100.00;98379.81;5058412;28;20124;-82
2021/06/13 02:34:02;;;;;;;16.88;4.35;;;;;;;11.14;100.00;98382.41;5025973;28;20041;-83
2021/06/13 02:36:40;;;;;;;18.30;4.30;;;;;;;11.24;100.00;98401.16;5027967;28;20045;-83
2021/06/13 02:39:09;;;;;;;14.50;4.70;;;;;;;11.15;100.00;98392.13;5043008;28;20045;-83
2021/06/13 02:41:36;;;;;;;19.27;4.00;;;;;;;11.07;100.00;98384.69;5043404;28;20057;-82
2021/06/13 02:44:06;;;;;;;14.82;4.28;;;;;;;11.06;100.00;98404.75;5018576;28;20162;-82
2021/06/13 02:46:33;;;;;;;13.02;3.75;;;;;;;11.05;100.00;98390.41;5043034;28;20056;-83
2021/06/13 02:49:02;;;;;;;13.63;4.78;;;;;;;11.04;100.00;98420.53;5042557;28;20125;-82
2021/06/13 02:51:34;;;;;;;15.18;4.28;;;;;;;11.07;100.00;98420.72;5040452;28;20049;-82
2021/06/13 02:54:03;;;;;;;20.55;4.70;;;;;;;10.91;100.00;98405.03;5039642;28;20132;-83
2021/06/13 02:56:59;;;;;;;17.35;4.82;;;;;;;11.05;100.00;98428.34;5040074;28;20122;-81
2021/06/13 02:59:48;;;;;;;14.43;4.43;;;;;;;10.91;100.00;98410.47;5024291;28;20045;-82
2021/06/13 03:02:22;;;;;;;17.90;4.20;;;;;;;10.92;100.00;98417.47;5061273;28;20405;-82
2021/06/13 03:05:10;;;;;;;14.70;4.95;;;;;;;10.95;100.00;98439.34;5042311;28;20053;-83
2021/06/13 03:07:43;;;;;;;22.67;5.05;;;;;;;10.98;100.00;98441.47;5052668;28;20057;-82
2021/06/13 03:10:13;;;;;;;16.90;5.00;;;;;;;10.97;100.00;98431.72;5028176;28;20063;-84
2021/06/13 03:12:41;;;;;;;13.85;4.40;;;;;;;10.92;100.00;98428.31;5027474;28;20053;-84
2021/06/13 03:15:09;;;;;;;14.23;4.90;;;;;;;10.97;100.00;98430.94;5026558;28;20106;-84
2021/06/13 03:17:40;;;;;;;19.88;4.70;;;;;;;11.07;100.00;98438.91;5028652;28;20057;-83
2021/06/13 03:20:12;;;;;;;16.98;4.68;;;;;;;11.09;100.00;98452.94;5061423;28;20097;-82
2021/06/13 03:22:42;;;;;;;18.52;5.15;;;;;;;11.11;100.00;98435.28;5059209;28;20049;-82
2021/06/13 03:25:10;;;;;;;14.90;4.68;;;;;;;11.21;100.00;98443.22;5022378;28;20049;-81
2021/06/13 03:27:45;;;;;;;24.13;5.40;;;;;;;11.18;100.00;98441.13;5035188;28;20056;-84
2021/06/13 03:30:12;;;;;;;18.40;4.63;;;;;;;11.38;100.00;98453.47;5052872;28;20060;-83
2021/06/13 03:32:42;;;;;;;16.70;4.93;;;;;;;11.31;100.00;98452.25;5042159;28;20039;-83
2021/06/13 03:35:10;;;;;;;15.95;4.38;;;;;;;11.28;100.00;98464.50;5069158;28;20033;-85
2021/06/13 03:37:39;;;;;;;12.45;4.55;;;;;;;11.33;100.00;98460.91;5026278;28;20145;-82
2021/06/13 03:40:08;;;;;;;18.95;4.80;;;;;;;11.36;100.00;98471.94;5028526;28;20134;-83
2021/06/13 03:42:35;;;;;;;17.48;4.45;;;;;;;11.37;100.00;98460.03;5063042;28;20088;-83
2021/06/13 03:45:03;;;;;;;24.63;5.50;;;;;;;11.42;100.00;98467.25;5027933;28;20049;-84
2021/06/13 03:47:32;;;;;;;17.45;4.50;;;;;;;11.49;100.00;98482.00;5029298;28;20041;-84
2021/06/13 03:49:59;;;;;;;18.35;4.88;;;;;;;11.44;100.00;98470.44;5045873;28;20106;-83
2021/06/13 03:52:38;;;;;;;20.23;4.65;;;;;;;11.38;100.00;98471.69;5049340;28;20235;-81
2021/06/13 03:55:05;;;;;;;13.00;4.57;;;;;;;11.40;100.00;98475.69;5048961;28;20079;-82
2021/06/13 03:57:33;;;;;;;17.80;4.45;;;;;;;11.46;100.00;98484.53;5030797;28;20052;-81
2021/06/13 04:00:01;;;;;;;17.38;4.70;;;;;;;11.61;100.00;98495.09;5035833;28;20209;-83
2021/06/13 04:03:02;;;;;;;17.98;4.57;;;;;;;11.47;100.00;98473.38;5036248;28;20060;-81
2021/06/13 04:05:29;;;;;;;17.30;4.57;;;;;;;11.42;100.00;98478.91;5034604;28;20053;-82
2021/06/13 04:07:56;;;;;;;15.18;4.63;;;;;;;11.57;100.00;98486.75;5049458;28;20190;-83
2021/06/13 04:10:25;;;;;;;21.83;5.18;;;;;;;11.58;100.00;98491.06;5066347;28;20049;-82
2021/06/13 04:12:54;;;;;;;13.93;4.72;;;;;;;11.69;100.00;98508.78;5066979;28;20033;-85
2021/06/13 04:15:22;;;;;;;14.15;4.55;;;;;;;11.57;100.00;98492.16;5049652;28;20041;-83
2021/06/13 04:17:49;;;;;;;14.20;4.47;;;;;;;11.71;100.00;98512.03;5047347;28;20130;-84
2021/06/13 04:20:20;;;;;;;18.08;4.57;;;;;;;11.58;100.00;98487.56;5047985;28;20071;-82
2021/06/13 04:22:49;;;;;;;14.57;4.55;;;;;;;11.72;100.00;98505.47;5032360;28;20049;-81
2021/06/13 04:25:20;;;;;;;14.13;4.28;;;;;;;11.65;100.00;98491.47;5048600;28;20104;-83
2021/06/13 04:27:51;;;;;;;19.50;4.55;;;;;;;11.70;100.00;98517.72;5052188;28;20104;-82
2021/06/13 04:30:18;;;;;;;22.92;4.85;;;;;;;11.57;100.00;98499.50;5055669;28;20079;-83
2021/06/13 04:32:45;;;;;;;16.45;4.60;;;;;;;11.71;100.00;98513.91;5039623;28;20220;-83
2021/06/13 04:35:12;;;;;;;13.77;4.05;;;;;;;11.57;100.00;98496.78;5039815;28;20037;-83
2021/06/13 04:37:45;;;;;;;14.35;4.03;;;;;;;11.70;100.00;98510.41;5056652;28;20041;-82
2021/06/13 04:40:12;;;;;;;12.88;4.13;;;;;;;11.72;100.00;98507.38;5032020;28;20056;-82
2021/06/13 04:42:40;;;;;;;17.23;4.50;;;;;;;11.88;100.00;98519.53;5031866;28;20151;-83
2021/06/13 04:45:09;;;;;;;17.90;4.75;;;;;;;11.86;100.00;98524.47;5032851;28;20136;-82
2021/06/13 04:47:36;;;;;;;17.15;3.88;;;;;;;11.82;100.00;98518.03;5031979;28;20057;-85
2021/06/13 04:50:05;;;;;;;15.13;4.28;;;;;;;11.80;100.00;98518.34;5047948;28;20136;-81
2021/06/13 04:52:37;;;;;;;21.33;4.05;;;;;;;11.87;100.00;98528.81;5053989;28;20033;-82
2021/06/13 04:55:13;;;;;;;14.90;4.15;;;;;;;11.66;100.00;98513.97;5084445;28;20121;-80
2021/06/13 04:57:58;;;;;;;15.75;4.20;;;;;;;11.77;100.00;98539.81;5069147;28;20044;-83
2021/06/13 05:00:33;;;;;;;21.85;4.40;;;;;;;11.73;100.00;98527.97;5069733;28;20094;-82
2021/06/13 05:03:14;;;;;;;16.13;4.10;;;;;;;11.61;100.00;98516.78;5069919;28;20037;-82
2021/06/13 05:05:41;;;;;;;18.58;4.13;;;;;;;11.65;100.00;98520.50;5068450;28;20056;-82
2021/06/13 05:08:11;;;;;;;16.60;4.20;;;;;;;11.85;100.00;98536.41;5070761;28;20068;-82
2021/06/13 05:10:41;;;;;;;17.55;4.43;;;;;;;11.86;100.00;98538.84;5069765;28;20053;-81
2021/06/13 05:13:30;;;;;;;21.60;5.05;;;;;;;11.77;100.00;98543.34;5053887;28;20052;-83
2021/06/13 05:16:00;;;;;;;14.48;4.07;;;;;;;11.92;100.00;98550.41;5069547;28;20048;-83
2021/06/13 05:18:36;;;;;;;20.60;4.55;;;;;;;11.95;100.00;98541.66;5068258;28;20044;-81
2021/06/13 05:21:08;;;;;;;16.25;4.00;;;;;;;12.03;100.00;98529.28;5088706;28;20051;-84
2021/06/13 05:23:38;;;;;;;19.83;4.32;;;;;;;12.10;100.00;98527.78;5055282;28;20024;-85
2021/06/13 05:26:05;;;;;;;17.45;4.25;;;;;;;12.18;100.00;98529.78;5072587;28;20052;-83
2021/06/13 05:28:34;;;;;;;14.63;4.38;;;;;;;12.33;100.00;98534.91;5055969;28;20078;-84
2021/06/13 05:31:19;;;;;;;14.98;4.13;;;;;;;12.17;100.00;98522.75;5073877;28;20104;-83
2021/06/13 05:33:45;;;;;;;17.50;4.57;;;;;;;12.21;100.00;98548.19;5053629;28;20114;-75
2021/06/13 05:36:12;;;;;;;16.33;3.97;;;;;;;12.13;100.00;98553.53;5062746;28;20041;-80
2021/06/13 05:38:41;;;;;;;16.50;3.83;;;;;;;12.32;100.00;98554.19;5036684;28;20037;-81
2021/06/13 05:41:09;;;;;;;15.90;4.13;;;;;;;12.14;100.00;98544.25;5046252;28;20112;-81
2021/06/13 05:43:35;;;;;;;13.57;3.80;;;;;;;12.01;100.00;98562.16;5052814;28;20151;-79
2021/06/13 05:46:03;;;;;;;16.67;3.92;;;;;;;12.03;100.00;98559.94;5041767;28;20048;-81
2021/06/13 05:48:30;;;;;;;15.82;3.88;;;;;;;12.16;100.00;98566.47;5074043;28;20063;-81
2021/06/13 05:51:03;;;;;;;15.30;4.10;;;;;;;12.17;100.00;98558.03;5075602;28;20203;-83
2021/06/13 05:53:32;;;;;;;17.05;3.47;;;;;;;12.17;100.00;98562.66;5030859;28;20233;-83
2021/06/13 05:55:59;;;;;;;12.55;3.65;;;;;;;12.07;100.00;98552.81;5047363;28;20036;-82
2021/06/13 05:58:29;;;;;;;14.90;4.30;;;;;;;12.07;100.00;98552.81;5029526;28;20052;-83
2021/06/13 06:00:56;;;;;;;17.50;4.25;;;;;;;12.12;100.00;98555.44;5030729;28;20053;-81
2021/06/13 06:03:23;;;;;;;16.77;4.38;;;;;;;12.30;100.00;98545.56;5030151;28;20068;-81
2021/06/13 06:05:51;;;;;;;12.77;3.47;;;;;;;12.38;100.00;98555.72;5047669;28;20067;-82
2021/06/13 06:08:18;;;;;;;12.95;3.80;;;;;;;12.59;100.00;98550.66;5042277;28;20064;-81
2021/06/13 06:10:45;;;;;;;13.18;3.75;;;;;;;12.61;100.00;98556.56;5012762;28;20055;-82
2021/06/13 06:13:11;;;;;;;17.10;3.88;;;;;;;12.74;100.00;98566.59;5044850;28;20049;-81
2021/06/13 06:15:42;;;;;;;16.88;3.60;;;;;;;12.73;100.00;98562.28;5053204;28;20121;-82
2021/06/13 06:18:08;;;;;;;15.48;3.53;;;;;;;12.88;100.00;98564.63;5043023;28;20064;-80
2021/06/13 06:20:36;;;;;;;16.25;3.55;;;;;;;12.91;100.00;98562.13;5039941;28;20064;-83
2021/06/13 06:23:05;;;;;;;17.95;4.10;;;;;;;13.33;100.00;98551.91;5025752;28;20080;-82
2021/06/13 06:25:32;;;;;;;14.27;3.42;;;;;;;13.65;100.00;98560.59;5043692;28;20116;-81
2021/06/13 06:28:02;;;;;;;15.77;3.35;;;;;;;13.81;100.00;98573.81;5046341;28;20041;-84
2021/06/13 06:30:30;;;;;;;13.98;3.35;;;;;;;13.80;100.00;98556.69;5042607;28;20048;-82
2021/06/13 06:33:10;;;;;;;19.17;3.15;;;;;;;13.47;100.00;98563.53;5043868;28;20053;-80
2021/06/13 06:35:39;;;;;;;15.43;3.30;;;;;;;13.57;100.00;98576.88;5052907;28;20049;-82
2021/06/13 06:38:08;;;;;;;14.35;3.40;;;;;;;13.40;100.00;98576.75;5040783;28;20040;-81
2021/06/13 06:40:35;;;;;;;16.52;2.90;;;;;;;13.53;100.00;98571.25;5072052;28;20094;-80
2021/06/13 06:43:02;;;;;;;11.63;3.20;;;;;;;13.39;100.00;98580.59;5043199;28;20083;-80
2021/06/13 06:45:29;;;;;;;15.80;3.38;;;;;;;13.47;100.00;98580.63;5037954;28;20045;-79
2021/06/13 06:47:55;;;;;;;11.38;3.63;;;;;;;13.66;100.00;98583.97;5057243;28;20405;-81
2021/06/13 06:50:22;;;;;;;14.95;3.60;;;;;;;14.05;100.00;98587.84;5037576;28;20064;-80
2021/06/13 06:52:48;;;;;;;15.43;3.45;;;;;;;14.34;100.00;98590.88;5043125;28;20057;-80
2021/06/13 06:55:17;;;;;;;13.80;3.20;;;;;;;14.75;100.00;98606.84;5053962;28;20044;-79
2021/06/13 06:57:48;;;;;;;13.63;3.47;;;;;;;14.26;100.00;98616.13;5053116;28;20072;-79
2021/06/13 07:00:17;;;;;;;17.52;3.28;;;;;;;13.46;100.00;98610.88;5048260;28;20056;-83
2021/06/13 07:02:45;;;;;;;17.85;3.50;;;;;;;13.05;100.00;98630.84;5035017;28;20060;-83
2021/06/13 07:05:13;;;;;;;16.63;3.97;;;;;;;12.99;100.00;98621.19;5043429;28;20503;-82
2021/06/13 07:07:39;;;;;;;15.23;3.92;;;;;;;13.20;100.00;98616.13;5032788;28;20049;-81
2021/06/13 07:10:07;;;;;;;21.50;3.70;;;;;;;13.26;100.00;98628.50;5056501;28;20060;-82
2021/06/13 07:12:34;;;;;;;12.45;3.42;;;;;;;13.17;100.00;98632.25;5053112;28;20127;-82
2021/06/13 07:15:01;;;;;;;13.80;3.70;;;;;;;13.44;100.00;98627.53;5041376;28;20044;-82
2021/06/13 07:17:29;;;;;;;19.05;3.92;;;;;;;13.66;100.00;98619.34;5041699;28;20178;-81
2021/06/13 07:19:55;;;;;;;15.32;3.58;;;;;;;13.82;100.00;98622.47;5041543;28;20060;-82
2021/06/13 07:22:23;;;;;;;14.20;3.28;;;;;;;13.96;100.00;98638.75;5040174;28;20567;-82
2021/06/13 07:24:52;;;;;;;16.63;3.58;;;;;;;14.07;100.00;98629.97;5034339;28;20120;-83
2021/06/13 07:27:20;;;;;;;13.20;3.38;;;;;;;13.98;100.00;98645.47;5044113;28;20054;-83
2021/06/13 07:29:49;;;;;;;16.98;3.53;;;;;;;13.92;100.00;98645.91;5052872;28;20082;-82
2021/06/13 07:32:16;;;;;;;10.00;3.30;;;;;;;13.88;100.00;98650.38;5042997;28;20048;-82
2021/06/13 07:34:48;;;;;;;15.85;3.92;;;;;;;13.69;100.00;98637.78;5069104;28;20037;-82
2021/06/13 07:37:22;;;;;;;13.82;3.80;;;;;;;13.56;100.00;98651.44;5050190;28;20120;-82
2021/06/13 07:39:50;;;;;;;12.15;3.70;;;;;;;13.45;100.00;98652.78;5041404;28;20109;-83
2021/06/13 07:42:17;;;;;;;12.07;3.47;;;;;;;13.26;100.00;98649.44;5025680;28;20045;-81
2021/06/13 07:44:48;;;;;;;14.50;3.80;;;;;;;13.43;100.00;98658.56;5062530;28;20047;-82
2021/06/13 07:47:14;;;;;;;19.92;4.03;;;;;;;13.45;100.00;98659.03;5045569;28;20051;-83
2021/06/13 07:49:41;;;;;;;17.58;3.67;;;;;;;13.43;100.00;98658.56;5070310;28;20048;-84
2021/06/13 07:52:11;;;;;;;11.75;3.60;;;;;;;13.33;100.00;98647.91;5067740;28;20047;-82
2021/06/13 07:54:38;;;;;;;12.32;3.22;;;;;;;13.15;100.00;98658.94;5069638;28;20719;-82
2021/06/13 07:57:05;;;;;;;15.82;3.88;;;;;;;13.26;100.00;98663.88;5071583;28;20048;-79
2021/06/13 07:59:35;;;;;;;15.23;3.33;;;;;;;13.15;100.00;98659.75;5063053;28;20539;-84
2021/06/13 08:02:04;;;;;;;16.00;3.55;;;;;;;13.24;100.00;98662.56;5022957;28;20151;-79
2021/06/13 08:04:36;;;;;;;15.90;3.42;;;;;;;13.06;100.00;98675.97;5052065;28;20037;-82
2021/06/13 08:07:03;;;;;;;12.88;3.13;;;;;;;12.94;100.00;98677.59;5038162;28;20048;-85
2021/06/13 08:09:53;;;;;;;12.75;3.10;;;;;;;12.99;100.00;98661.97;5039591;28;20036;-84
2021/06/13 08:12:20;;;;;;;16.65;3.28;;;;;;;13.07;100.00;98669.44;5064088;28;20088;-85
2021/06/13 08:14:54;;;;;;;11.85;3.00;;;;;;;13.19;100.00;98679.00;5048985;28;20032;-87
2021/06/13 08:17:21;;;;;;;14.63;3.63;;;;;;;13.33;100.00;98688.72;5031067;28;20113;-86
2021/06/13 08:20:08;;;;;;;16.23;3.58;;;;;;;13.52;100.00;98666.78;5034561;28;20061;-87
2021/06/13 08:22:35;;;;;;;18.90;3.92;;;;;;;13.70;100.00;98663.88;5034901;28;20049;-88
2021/06/13 08:25:09;;;;;;;15.10;3.40;;;;;;;13.98;100.00;98669.19;5033187;28;20057;-86
2021/06/13 08:27:36;;;;;;;13.38;3.28;;;;;;;14.23;100.00;98638.53;5032034;28;20053;-88
2021/06/13 08:30:06;;;;;;;13.38;3.10;;;;;;;14.55;100.00;98664.69;5025890;28;20061;-87
2021/06/13 08:32:33;;;;;;;12.85;3.13;;;;;;;14.51;100.00;98658.22;5034638;28;20103;-88
2021/06/13 08:35:09;;;;;;;12.75;2.97;;;;;;;14.62;100.00;98676.72;5035524;28;20055;-88
2021/06/13 08:37:40;;;;;;;11.55;2.78;;;;;;;14.14;100.00;98651.34;5036319;28;20124;-87
2021/06/13 08:40:12;;;;;;;8.02;2.50;;;;;;;13.99;100.00;98681.69;5036062;28;20069;-86
2021/06/13 08:42:41;;;;;;;10.85;3.05;;;;;;;13.71;100.00;98657.31;5036621;28;20120;-88
2021/06/13 08:48:30;;;;;;;8.50;2.67;;;;;;;13.86;100.00;98671.69;5022634;28;20125;-88
2021/06/13 08:50:58;;;;;;;14.05;3.40;;;;;;;13.67;100.00;98680.84;5039074;28;20079;-86
2021/06/13 08:53:25;;;;;;;11.07;2.83;;;;;;;13.71;100.00;98678.28;5034698;28;20063;-87
2021/06/13 08:55:53;;;;;;;12.50;2.75;;;;;;;13.39;100.00;98678.53;5030794;28;20053;-88
2021/06/13 08:58:20;;;;;;;13.40;3.42;;;;;;;13.47;100.00;98689.47;5031682;28;20048;-83
2021/06/13 09:00:49;;;;;;;11.02;2.75;;;;;;;13.62;100.00;98680.97;5028658;28;20057;-84
2021/06/13 09:03:18;;;;;;;13.10;2.80;;;;;;;13.60;100.00;98690.53;5048606;28;20044;-86
2021/06/13 09:05:51;;;;;;;11.90;2.92;;;;;;;13.68;100.00;98676.97;5031448;28;20045;-84
2021/06/13 09:08:18;;;;;;;11.07;2.63;;;;;;;14.02;100.00;98689.22;5046539;28;20048;-81
2021/06/13 09:10:50;;;;;;;11.23;3.17;;;;;;;14.21;100.00;98671.56;5029593;28;20136;-85
2021/06/13 09:13:27;;;;;;;12.55;2.75;;;;;;;14.59;100.00;98685.53;5040581;28;20044;-77
2021/06/13 09:16:12;;;;;;;16.65;3.13;;;;;;;14.51;100.00;98685.47;5041062;28;20041;-86
2021/06/13 09:18:46;;;;;;;14.52;2.90;;;;;;;14.89;100.00;98694.78;5047393;28;20067;-77
2021/06/13 09:21:46;;;;;;;14.07;3.55;;;;;;;14.76;100.00;98701.16;5060638;28;20052;-84
2021/06/13 09:24:35;;;;;;;15.35;3.45;;;;;;;14.01;100.00;98698.50;5058237;28;20045;-84
2021/06/13 09:28:06;;;;;;;15.07;3.05;;;;;;;13.82;100.00;98708.78;5034899;28;20052;-83
2021/06/13 09:30:39;;;;;;;14.90;3.30;;;;;;;13.77;100.00;98700.75;5041735;28;20427;-77
2021/06/13 09:33:30;;;;;;;18.75;3.42;;;;;;;13.71;100.00;98709.03;5056527;28;20071;-86
2021/06/13 09:36:26;;;;;;;10.63;3.15;;;;;;;13.46;100.00;98708.81;5021582;28;20337;-85
2021/06/13 09:41:24;;;;;;;16.95;3.28;;;;;;;13.62;100.00;98720.97;5047880;28;20056;-76
2021/06/13 09:43:56;;;;;;;12.63;3.33;;;;;;;13.61;100.00;98727.50;5036048;28;20059;-80
2021/06/13 09:46:33;;;;;;;15.65;3.35;;;;;;;13.60;100.00;98729.41;5012712;28;20033;-80
2021/06/13 09:49:07;;;;;;;12.13;3.10;;;;;;;14.31;100.00;98723.06;5021816;28;20063;-78
2021/06/13 09:51:38;;;;;;;16.15;3.10;;;;;;;14.62;100.00;98723.06;5052685;28;20044;-78
2021/06/13 09:54:06;;;;;;;12.15;2.60;;;;;;;14.86;100.00;98723.47;5069699;28;20048;-77
2021/06/13 09:56:41;;;;;;;11.45;2.90;;;;;;;15.51;100.00;98711.75;5069635;28;20121;-78
2021/06/13 09:59:13;;;;;;;14.40;2.65;;;;;;;15.63;100.00;98720.09;5051817;28;20523;-77
2021/06/13 10:01:42;;;;;;;12.20;2.72;;;;;;;15.76;100.00;98721.06;5071885;28;20377;-79
2021/06/13 10:04:19;;;;;;;10.80;2.88;;;;;;;15.44;100.00;98712.19;5069298;28;20103;-78
2021/06/13 10:06:51;;;;;;;12.70;3.00;;;;;;;15.37;100.00;98719.25;5052170;28;20491;-80
2021/06/13 10:09:33;;;;;;;12.32;2.80;;;;;;;15.46;100.00;98729.06;5070389;28;20040;-79
2021/06/13 10:12:06;;;;;;;10.48;2.40;;;;;;;15.40;100.00;98724.88;5069575;28;20090;-79
2021/06/13 10:14:37;;;;;;;11.57;2.25;;;;;;;15.03;100.00;98741.78;5069602;28;20052;-78
2021/06/13 10:17:03;;;;;;;18.58;2.70;;;;;;;14.65;100.00;98735.25;5063399;28;20044;-77
2021/06/13 10:19:41;;;;;;;11.35;2.55;;;;;;;14.71;100.00;98748.41;5049679;28;20076;-79
2021/06/13 10:22:10;;;;;;;13.55;3.22;;;;;;;14.93;100.00;98733.91;5049304;28;20048;-78
2021/06/13 10:24:39;;;;;;;10.48;2.60;;;;;;;15.56;100.00;98736.16;5067236;28;20466;-79
2021/06/13 10:27:07;;;;;;;21.58;2.83;;;;;;;16.03;100.00;98742.56;5032778;28;20118;-78
2021/06/13 10:29:36;;;;;;;13.75;2.60;;;;;;;16.24;100.00;98735.28;5049027;28;20056;-77
2021/06/13 10:32:05;;;;;;;8.85;2.50;;;;;;;16.59;100.00;98736.03;5030871;28;20049;-78
2021/06/13 10:34:32;;;;;;;12.50;2.63;;;;;;;16.33;100.00;98729.81;5066091;28;20091;-78
2021/06/13 10:37:02;;;;;;;8.25;2.50;;;;;;;16.61;100.00;98744.72;5053180;28;20060;-78
2021/06/13 10:39:32;;;;;;;9.88;2.40;;;;;;;16.71;100.00;98739.69;5071136;28;20055;-79
2021/06/13 10:42:00;;;;;;;10.15;2.90;;;;;;;17.53;83.95;98740.22;5069331;28;20044;-78
2021/06/13 10:44:29;;;;;;;9.40;2.30;;;;;;;17.84;79.80;98730.47;5052466;28;20523;-77
2021/06/13 10:47:09;;;;;;;7.18;2.00;;;;;;;17.31;79.23;98730.38;5070334;28;20055;-76
2021/06/13 10:49:38;;;;;;;8.38;2.38;;;;;;;17.56;84.80;98725.88;5048182;28;20504;-78
2021/06/13 10:52:14;;;;;;;11.07;2.47;;;;;;;18.02;78.74;98731.13;5039660;28;20045;-78
2021/06/13 10:54:50;;;;;;;6.55;2.10;;;;;;;17.19;76.46;98727.53;5036419;28;20040;-79
2021/06/13 10:57:19;;;;;;;7.22;2.00;;;;;;;17.37;80.76;98731.75;5033367;28;20045;-76
2021/06/13 10:59:57;;;;;;;8.20;2.13;;;;;;;17.38;78.85;98731.44;5030033;28;20145;-79
2021/06/13 11:02:25;;;;;;;9.05;2.33;;;;;;;16.99;81.70;98736.50;5050253;28;20045;-77
2021/06/13 11:05:03;;;;;;;8.93;2.67;;;;;;;16.87;82.69;98737.22;5068069;28;20102;-79
2021/06/13 11:07:34;;;;;;;7.43;1.90;;;;;;;16.47;79.70;98738.59;5070566;28;20072;-79
2021/06/13 11:10:10;;;;;;;9.35;2.25;;;;;;;16.12;90.81;98738.72;5069004;28;20041;-79
2021/06/13 11:13:01;;;;;;;;;;;;;;;16.57;96.40;98736.34;5068484;28;20052;-78
2021/06/13 11:15:36;;;;;;;9.73;2.38;;;;;;;16.86;87.34;98745.72;5068204;28;19990;-76
2021/06/13 11:18:16;;;;;;;10.10;2.25;;;;;;;16.97;77.47;98731.38;5067493;28;20051;-78
2021/06/13 11:21:02;;;;;;;9.85;2.28;;;;;;;16.58;94.09;98746.16;5067278;28;20052;-78
2021/06/13 11:23:28;;;;;;;10.20;2.72;;;;;;;16.65;92.00;98753.84;5048980;28;20049;-80
2021/06/13 11:25:57;;;;;;;8.60;2.47;;;;;;;16.49;91.52;98745.34;5048477;28;20041;-78
2021/06/13 11:28:30;;;;;;;7.72;2.30;;;;;;;17.36;88.25;98752.06;5055048;28;20090;-78
2021/06/13 11:31:18;;;;;;;8.30;2.53;;;;;;;17.58;83.13;98750.97;5073880;28;20056;-78
2021/06/13 11:33:48;;;;;;;10.02;2.70;;;;;;;17.84;79.82;98749.66;5062401;28;20534;-77
2021/06/13 11:36:17;;;;;;;6.38;2.38;;;;;;;17.72;80.16;98751.53;5067225;28;20057;-76
2021/06/13 11:39:13;;;;;;;10.07;2.60;;;;;;;17.53;84.79;98749.25;5051156;28;20739;-78
2021/06/13 11:41:45;;;;;;;10.00;2.65;;;;;;;18.23;78.67;98748.34;5062810;28;20056;-80
2021/06/13 11:44:37;;;;;;;9.88;2.60;;;;;;;19.32;71.00;98744.94;5071036;28;20052;-78
2021/06/13 11:47:32;;;;;;;10.90;2.72;;;;;;;19.69;65.22;98746.53;5054118;28;20407;-78
2021/06/13 11:50:00;;;;;;;14.75;2.45;;;;;;;19.60;59.65;98743.09;5049125;28;20102;-78
2021/06/13 11:52:47;;;;;;;9.60;2.58;;;;;;;19.56;60.26;98751.22;5050961;28;20049;-78
2021/06/13 11:55:14;;;;;;;6.82;2.13;;;;;;;18.33;65.85;98736.13;5050936;28;20056;-76
2021/06/13 11:57:40;;;;;;;12.15;2.45;;;;;;;18.86;66.26;98738.00;5049899;28;20102;-78